CheckWX is a tool to help pilots better visualize weather data.  It is not intended as a substitute for an official pre-flight weather briefing.

02:46:05 UTC

KPIB TAF
Hattiesburg / Laurel Regional Airport
Hattiesburg-Laurel, Mississippi, USA
KPIB 252321Z 2600/2624 16003KT P6SM -RA BKN007 BKN060 FM260100 15003KT P6SM SHRA SCT015 BKN035 FM260700 15003KT 5SM -SHRA BR SCT008 BKN015 FM261100 11002KT 3SM -SHRA BR OVC003 FM261600 18005KT P6SM -SHRA VCTS SCT015 BKN025CB FM262000 21006KT P6SM -SHRA VCTS OVC025CB

Aug-26@
00:00 UTC

Aug-26 @ 00:00 UTC

Aug-26@
01:00 UTC

Aug-26 @ 01:00 UTC

KPIB 252321Z 2600/2624 16003KT P6SM -RA BKN007 BKN060

Expired

Wind
  • 160° at 3 KTS
Conditions
Light Rain
Cloud Levels
  • Broken at 700' AGL
  • Broken at 6,000' AGL

Aug-26@
01:00 UTC

Aug-26 @ 01:00 UTC

Aug-26@
07:00 UTC

Aug-26 @ 07:00 UTC

FM260100 15003KT P6SM SHRA SCT015 BKN035

From

From Standard forecast or significant change

Wind
  • 150° at 3 KTS
Conditions
Rain
Cloud Levels
  • Scattered at 1,500' AGL
  • Broken at 3,500' AGL

Aug-26@
07:00 UTC

Aug-26 @ 07:00 UTC

Aug-26@
11:00 UTC

Aug-26 @ 11:00 UTC

FM260700 15003KT 5SM -SHRA BR SCT008 BKN015

From

From Standard forecast or significant change

Wind
  • 150° at 3 KTS
Conditions
Light Rain, Mist
Cloud Levels
  • Scattered at 800' AGL
  • Broken at 1,500' AGL

Aug-26@
11:00 UTC

Aug-26 @ 11:00 UTC

Aug-26@
16:00 UTC

Aug-26 @ 16:00 UTC

FM261100 11002KT 3SM -SHRA BR OVC003

From

From Standard forecast or significant change

Wind
  • 110° at 2 KTS
Conditions
Light Rain, Mist
Cloud Levels
  • Overcast at 300' AGL

Aug-26@
16:00 UTC

Aug-26 @ 16:00 UTC

Aug-26@
20:00 UTC

Aug-26 @ 20:00 UTC

FM261600 18005KT P6SM -SHRA VCTS SCT015 BKN025CB

From

From Standard forecast or significant change

Wind
  • 180° at 5 KTS
Conditions
Light Rain, Area Thunderstorm
Cloud Levels
  • Scattered at 1,500' AGL
  • Broken at 2,500' AGL

Aug-26@
20:00 UTC

Aug-26 @ 20:00 UTC

Aug-27@
00:00 UTC

Aug-27 @ 00:00 UTC

FM262000 21006KT P6SM -SHRA VCTS OVC025CB

From

From Standard forecast or significant change

Wind
  • 210° at 6 KTS
Conditions
Light Rain, Area Thunderstorm
Cloud Levels
  • Overcast at 2,500' AGL